sensor_id;sensor_type;location;lat;lon;timestamp;P1;durP1;ratioP1;P2;durP2;ratioP2
68757;SDS011;55747;51.998;4.466;2023-03-01T00:01:44;31.60;;;18.20;;
68757;SDS011;55747;51.998;4.466;2023-03-01T00:04:10;26.83;;;17.33;;
68757;SDS011;55747;51.998;4.466;2023-03-01T00:06:35;27.05;;;17.58;;
68757;SDS011;55747;51.998;4.466;2023-03-01T00:09:01;27.00;;;17.27;;
68757;SDS011;55747;51.998;4.466;2023-03-01T00:11:28;29.38;;;17.42;;
68757;SDS011;55747;51.998;4.466;2023-03-01T00:13:56;30.48;;;18.15;;
68757;SDS011;55747;51.998;4.466;2023-03-01T00:16:24;30.02;;;17.40;;
68757;SDS011;55747;51.998;4.466;2023-03-01T00:18:55;31.73;;;17.45;;
68757;SDS011;55747;51.998;4.466;2023-03-01T00:21:21;28.58;;;17.88;;
68757;SDS011;55747;51.998;4.466;2023-03-01T00:23:48;27.70;;;17.17;;
68757;SDS011;55747;51.998;4.466;2023-03-01T00:26:13;32.67;;;17.65;;
68757;SDS011;55747;51.998;4.466;2023-03-01T00:28:41;31.75;;;18.83;;
68757;SDS011;55747;51.998;4.466;2023-03-01T00:31:14;29.90;;;18.92;;
68757;SDS011;55747;51.998;4.466;2023-03-01T00:33:42;32.13;;;17.92;;
68757;SDS011;55747;51.998;4.466;2023-03-01T00:36:08;32.58;;;18.85;;
68757;SDS011;55747;51.998;4.466;2023-03-01T00:38:34;31.58;;;17.95;;
68757;SDS011;55747;51.998;4.466;2023-03-01T00:41:05;32.13;;;19.05;;
68757;SDS011;55747;51.998;4.466;2023-03-01T00:43:31;29.92;;;18.58;;
68757;SDS011;55747;51.998;4.466;2023-03-01T00:46:08;36.13;;;20.00;;
68757;SDS011;55747;51.998;4.466;2023-03-01T00:48:36;36.78;;;19.30;;
68757;SDS011;55747;51.998;4.466;2023-03-01T00:51:05;34.13;;;19.05;;
68757;SDS011;55747;51.998;4.466;2023-03-01T00:53:32;33.08;;;18.50;;
68757;SDS011;55747;51.998;4.466;2023-03-01T00:55:58;38.58;;;20.05;;
68757;SDS011;55747;51.998;4.466;2023-03-01T00:58:24;37.25;;;20.13;;
68757;SDS011;55747;51.998;4.466;2023-03-01T01:00:49;39.45;;;21.48;;
68757;SDS011;55747;51.998;4.466;2023-03-01T01:03:15;38.05;;;20.00;;
68757;SDS011;55747;51.998;4.466;2023-03-01T01:05:40;34.58;;;20.02;;
68757;SDS011;55747;51.998;4.466;2023-03-01T01:08:05;38.53;;;19.98;;
68757;SDS011;55747;51.998;4.466;2023-03-01T01:10:33;29.83;;;18.20;;
68757;SDS011;55747;51.998;4.466;2023-03-01T01:13:04;34.28;;;18.92;;
68757;SDS011;55747;51.998;4.466;2023-03-01T01:15:33;36.35;;;20.55;;
68757;SDS011;55747;51.998;4.466;2023-03-01T01:17:59;38.60;;;21.02;;
68757;SDS011;55747;51.998;4.466;2023-03-01T01:20:25;38.17;;;21.02;;
68757;SDS011;55747;51.998;4.466;2023-03-01T01:22:51;39.65;;;21.13;;
68757;SDS011;55747;51.998;4.466;2023-03-01T01:25:16;39.00;;;21.05;;
68757;SDS011;55747;51.998;4.466;2023-03-01T01:27:42;40.60;;;21.85;;
68757;SDS011;55747;51.998;4.466;2023-03-01T01:30:07;43.17;;;22.17;;
68757;SDS011;55747;51.998;4.466;2023-03-01T01:32:33;49.63;;;23.85;;
68757;SDS011;55747;51.998;4.466;2023-03-01T01:34:58;41.75;;;22.77;;
68757;SDS011;55747;51.998;4.466;2023-03-01T01:37:23;47.33;;;22.63;;
68757;SDS011;55747;51.998;4.466;2023-03-01T01:39:55;45.70;;;22.33;;
68757;SDS011;55747;51.998;4.466;2023-03-01T01:42:21;42.28;;;22.35;;
68757;SDS011;55747;51.998;4.466;2023-03-01T01:44:47;43.67;;;22.42;;
68757;SDS011;55747;51.998;4.466;2023-03-01T01:47:13;46.90;;;22.67;;
68757;SDS011;55747;51.998;4.466;2023-03-01T01:49:52;42.15;;;21.30;;
68757;SDS011;55747;51.998;4.466;2023-03-01T01:55:06;42.15;;;21.55;;
68757;SDS011;55747;51.998;4.466;2023-03-01T02:00:11;43.08;;;20.98;;
68757;SDS011;55747;51.998;4.466;2023-03-01T02:02:49;39.35;;;20.25;;
68757;SDS011;55747;51.998;4.466;2023-03-01T02:05:33;42.50;;;21.05;;
68757;SDS011;55747;51.998;4.466;2023-03-01T02:08:04;41.13;;;21.08;;
68757;SDS011;55747;51.998;4.466;2023-03-01T02:10:31;40.33;;;20.80;;
68757;SDS011;55747;51.998;4.466;2023-03-01T02:12:59;42.50;;;21.02;;
68757;SDS011;55747;51.998;4.466;2023-03-01T02:15:25;40.85;;;20.90;;
68757;SDS011;55747;51.998;4.466;2023-03-01T02:17:51;45.33;;;21.42;;
68757;SDS011;55747;51.998;4.466;2023-03-01T02:23:15;46.40;;;22.50;;
68757;SDS011;55747;51.998;4.466;2023-03-01T02:30:50;43.58;;;21.58;;
68757;SDS011;55747;51.998;4.466;2023-03-01T02:33:35;45.53;;;21.55;;
68757;SDS011;55747;51.998;4.466;2023-03-01T02:36:09;46.45;;;22.25;;
68757;SDS011;55747;51.998;4.466;2023-03-01T02:38:38;45.63;;;21.98;;
68757;SDS011;55747;51.998;4.466;2023-03-01T02:41:04;46.70;;;22.75;;
68757;SDS011;55747;51.998;4.466;2023-03-01T02:43:32;49.25;;;23.70;;
68757;SDS011;55747;51.998;4.466;2023-03-01T02:45:59;50.25;;;23.73;;
68757;SDS011;55747;51.998;4.466;2023-03-01T02:48:37;50.05;;;24.25;;
68757;SDS011;55747;51.998;4.466;2023-03-01T02:51:08;50.58;;;23.35;;
68757;SDS011;55747;51.998;4.466;2023-03-01T02:53:41;50.90;;;23.42;;
68757;SDS011;55747;51.998;4.466;2023-03-01T02:56:16;49.92;;;23.85;;
68757;SDS011;55747;51.998;4.466;2023-03-01T02:58:41;50.80;;;23.67;;
68757;SDS011;55747;51.998;4.466;2023-03-01T03:01:15;50.15;;;23.48;;
68757;SDS011;55747;51.998;4.466;2023-03-01T03:03:41;47.25;;;23.52;;
68757;SDS011;55747;51.998;4.466;2023-03-01T03:06:07;48.15;;;22.83;;
68757;SDS011;55747;51.998;4.466;2023-03-01T03:08:33;44.55;;;21.50;;
68757;SDS011;55747;51.998;4.466;2023-03-01T03:10:58;46.50;;;21.45;;
68757;SDS011;55747;51.998;4.466;2023-03-01T03:13:24;45.92;;;23.15;;
68757;SDS011;55747;51.998;4.466;2023-03-01T03:15:53;45.50;;;22.52;;
68757;SDS011;55747;51.998;4.466;2023-03-01T03:18:22;47.30;;;23.17;;
68757;SDS011;55747;51.998;4.466;2023-03-01T03:20:48;48.63;;;24.63;;
68757;SDS011;55747;51.998;4.466;2023-03-01T03:23:17;50.50;;;24.08;;
68757;SDS011;55747;51.998;4.466;2023-03-01T03:25:44;55.78;;;25.33;;
68757;SDS011;55747;51.998;4.466;2023-03-01T03:28:09;51.67;;;25.83;;
68757;SDS011;55747;51.998;4.466;2023-03-01T03:30:35;59.13;;;26.50;;
68757;SDS011;55747;51.998;4.466;2023-03-01T03:33:03;60.17;;;26.25;;
68757;SDS011;55747;51.998;4.466;2023-03-01T03:35:32;65.28;;;28.52;;
68757;SDS011;55747;51.998;4.466;2023-03-01T03:37:59;65.13;;;27.38;;
68757;SDS011;55747;51.998;4.466;2023-03-01T03:40:38;68.85;;;29.42;;
68757;SDS011;55747;51.998;4.466;2023-03-01T03:43:06;64.53;;;28.50;;
68757;SDS011;55747;51.998;4.466;2023-03-01T03:45:37;72.65;;;30.63;;
68757;SDS011;55747;51.998;4.466;2023-03-01T03:48:03;66.97;;;27.40;;
68757;SDS011;55747;51.998;4.466;2023-03-01T03:50:30;65.53;;;27.88;;
68757;SDS011;55747;51.998;4.466;2023-03-01T03:52:56;61.05;;;27.45;;
68757;SDS011;55747;51.998;4.466;2023-03-01T03:55:21;65.35;;;28.70;;
68757;SDS011;55747;51.998;4.466;2023-03-01T03:57:47;70.35;;;29.63;;
68757;SDS011;55747;51.998;4.466;2023-03-01T04:00:17;66.82;;;28.65;;
68757;SDS011;55747;51.998;4.466;2023-03-01T04:02:45;68.93;;;29.42;;
68757;SDS011;55747;51.998;4.466;2023-03-01T04:05:12;69.82;;;29.90;;
68757;SDS011;55747;51.998;4.466;2023-03-01T04:07:39;65.65;;;28.08;;
68757;SDS011;55747;51.998;4.466;2023-03-01T04:10:08;59.72;;;26.42;;
68757;SDS011;55747;51.998;4.466;2023-03-01T04:12:35;61.00;;;26.73;;
68757;SDS011;55747;51.998;4.466;2023-03-01T04:15:04;58.55;;;26.67;;
68757;SDS011;55747;51.998;4.466;2023-03-01T04:17:44;62.90;;;26.65;;
68757;SDS011;55747;51.998;4.466;2023-03-01T04:20:12;54.58;;;26.55;;
68757;SDS011;55747;51.998;4.466;2023-03-01T04:22:42;61.03;;;26.58;;
68757;SDS011;55747;51.998;4.466;2023-03-01T04:25:08;66.80;;;27.95;;
68757;SDS011;55747;51.998;4.466;2023-03-01T04:27:34;64.28;;;27.45;;
68757;SDS011;55747;51.998;4.466;2023-03-01T04:29:59;69.95;;;30.30;;
68757;SDS011;55747;51.998;4.466;2023-03-01T04:32:25;148.85;;;31.92;;
68757;SDS011;55747;51.998;4.466;2023-03-01T04:34:51;85.68;;;31.15;;
68757;SDS011;55747;51.998;4.466;2023-03-01T04:37:16;133.13;;;32.65;;
68757;SDS011;55747;51.998;4.466;2023-03-01T04:39:41;232.95;;;35.70;;
68757;SDS011;55747;51.998;4.466;2023-03-01T04:42:14;217.02;;;35.10;;
68757;SDS011;55747;51.998;4.466;2023-03-01T04:44:40;239.38;;;36.22;;
68757;SDS011;55747;51.998;4.466;2023-03-01T04:47:05;314.77;;;37.75;;
68757;SDS011;55747;51.998;4.466;2023-03-01T04:49:31;223.73;;;34.78;;
68757;SDS011;55747;51.998;4.466;2023-03-01T04:51:57;255.20;;;34.38;;
68757;SDS011;55747;51.998;4.466;2023-03-01T04:54:30;208.77;;;33.50;;
68757;SDS011;55747;51.998;4.466;2023-03-01T04:56:57;166.27;;;32.22;;
68757;SDS011;55747;51.998;4.466;2023-03-01T04:59:23;250.23;;;33.30;;
68757;SDS011;55747;51.998;4.466;2023-03-01T05:01:49;201.40;;;32.92;;
68757;SDS011;55747;51.998;4.466;2023-03-01T05:04:20;182.50;;;32.55;;
68757;SDS011;55747;51.998;4.466;2023-03-01T05:06:46;116.85;;;32.13;;
68757;SDS011;55747;51.998;4.466;2023-03-01T05:09:11;112.32;;;30.48;;
68757;SDS011;55747;51.998;4.466;2023-03-01T05:11:37;225.75;;;35.55;;
68757;SDS011;55747;51.998;4.466;2023-03-01T05:14:03;180.40;;;32.85;;
68757;SDS011;55747;51.998;4.466;2023-03-01T05:16:28;173.68;;;32.00;;
68757;SDS011;55747;51.998;4.466;2023-03-01T05:18:55;188.48;;;31.92;;
68757;SDS011;55747;51.998;4.466;2023-03-01T05:21:21;214.38;;;33.78;;
68757;SDS011;55747;51.998;4.466;2023-03-01T05:23:47;163.18;;;31.73;;
68757;SDS011;55747;51.998;4.466;2023-03-01T05:26:13;231.93;;;33.95;;
68757;SDS011;55747;51.998;4.466;2023-03-01T05:28:39;295.63;;;36.42;;
68757;SDS011;55747;51.998;4.466;2023-03-01T05:31:05;188.20;;;32.05;;
68757;SDS011;55747;51.998;4.466;2023-03-01T05:33:37;158.63;;;31.25;;
68757;SDS011;55747;51.998;4.466;2023-03-01T05:36:06;163.07;;;31.98;;
68757;SDS011;55747;51.998;4.466;2023-03-01T05:38:33;112.55;;;29.92;;
68757;SDS011;55747;51.998;4.466;2023-03-01T05:40:58;109.50;;;30.52;;
68757;SDS011;55747;51.998;4.466;2023-03-01T05:43:23;97.35;;;32.08;;
68757;SDS011;55747;51.998;4.466;2023-03-01T05:45:49;77.93;;;29.38;;
68757;SDS011;55747;51.998;4.466;2023-03-01T05:48:14;105.75;;;29.83;;
68757;SDS011;55747;51.998;4.466;2023-03-01T05:50:40;157.02;;;34.05;;
68757;SDS011;55747;51.998;4.466;2023-03-01T05:55:44;96.88;;;29.73;;
68757;SDS011;55747;51.998;4.466;2023-03-01T05:58:13;101.35;;;30.73;;
68757;SDS011;55747;51.998;4.466;2023-03-01T06:00:42;77.30;;;27.58;;
68757;SDS011;55747;51.998;4.466;2023-03-01T06:03:10;150.10;;;30.20;;
68757;SDS011;55747;51.998;4.466;2023-03-01T06:05:36;89.30;;;29.38;;
68757;SDS011;55747;51.998;4.466;2023-03-01T06:08:02;61.78;;;27.88;;
68757;SDS011;55747;51.998;4.466;2023-03-01T06:10:28;65.03;;;27.73;;
68757;SDS011;55747;51.998;4.466;2023-03-01T06:12:53;62.47;;;27.13;;
68757;SDS011;55747;51.998;4.466;2023-03-01T06:15:19;62.63;;;27.13;;
68757;SDS011;55747;51.998;4.466;2023-03-01T06:17:45;57.13;;;26.33;;
68757;SDS011;55747;51.998;4.466;2023-03-01T06:20:12;54.63;;;25.70;;
68757;SDS011;55747;51.998;4.466;2023-03-01T06:22:39;52.85;;;25.13;;
68757;SDS011;55747;51.998;4.466;2023-03-01T06:25:05;54.03;;;24.75;;
68757;SDS011;55747;51.998;4.466;2023-03-01T06:27:32;61.10;;;27.60;;
68757;SDS011;55747;51.998;4.466;2023-03-01T06:29:57;59.53;;;26.50;;
68757;SDS011;55747;51.998;4.466;2023-03-01T06:32:22;64.82;;;26.77;;
68757;SDS011;55747;51.998;4.466;2023-03-01T06:34:48;63.97;;;27.73;;
68757;SDS011;55747;51.998;4.466;2023-03-01T06:37:14;70.57;;;27.70;;
68757;SDS011;55747;51.998;4.466;2023-03-01T06:39:39;62.22;;;28.02;;
68757;SDS011;55747;51.998;4.466;2023-03-01T06:42:05;69.15;;;27.58;;
68757;SDS011;55747;51.998;4.466;2023-03-01T06:44:32;67.63;;;28.92;;
68757;SDS011;55747;51.998;4.466;2023-03-01T06:46:57;75.20;;;29.20;;
68757;SDS011;55747;51.998;4.466;2023-03-01T06:49:22;75.25;;;31.10;;
68757;SDS011;55747;51.998;4.466;2023-03-01T06:51:47;85.25;;;33.35;;
68757;SDS011;55747;51.998;4.466;2023-03-01T06:54:13;84.45;;;34.08;;
68757;SDS011;55747;51.998;4.466;2023-03-01T06:56:38;86.00;;;35.05;;
68757;SDS011;55747;51.998;4.466;2023-03-01T06:59:06;86.80;;;35.40;;
68757;SDS011;55747;51.998;4.466;2023-03-01T07:01:32;85.15;;;36.15;;
68757;SDS011;55747;51.998;4.466;2023-03-01T07:03:57;82.65;;;33.63;;
68757;SDS011;55747;51.998;4.466;2023-03-01T07:06:22;85.85;;;34.40;;
68757;SDS011;55747;51.998;4.466;2023-03-01T07:08:48;80.85;;;33.92;;
68757;SDS011;55747;51.998;4.466;2023-03-01T07:11:14;80.53;;;33.63;;
68757;SDS011;55747;51.998;4.466;2023-03-01T07:13:40;78.40;;;32.03;;
68757;SDS011;55747;51.998;4.466;2023-03-01T07:16:06;84.90;;;32.70;;
68757;SDS011;55747;51.998;4.466;2023-03-01T07:18:32;81.40;;;32.92;;
68757;SDS011;55747;51.998;4.466;2023-03-01T07:20:57;81.38;;;32.90;;
68757;SDS011;55747;51.998;4.466;2023-03-01T07:23:22;83.20;;;33.17;;
68757;SDS011;55747;51.998;4.466;2023-03-01T07:25:52;80.32;;;32.92;;
68757;SDS011;55747;51.998;4.466;2023-03-01T07:28:20;83.75;;;34.88;;
68757;SDS011;55747;51.998;4.466;2023-03-01T07:30:47;88.82;;;36.15;;
68757;SDS011;55747;51.998;4.466;2023-03-01T07:33:12;88.68;;;35.47;;
68757;SDS011;55747;51.998;4.466;2023-03-01T07:35:37;82.10;;;36.05;;
68757;SDS011;55747;51.998;4.466;2023-03-01T07:38:03;91.05;;;36.55;;
68757;SDS011;55747;51.998;4.466;2023-03-01T07:40:28;84.75;;;36.80;;
68757;SDS011;55747;51.998;4.466;2023-03-01T07:42:57;84.38;;;36.50;;
68757;SDS011;55747;51.998;4.466;2023-03-01T07:45:23;79.95;;;34.92;;
68757;SDS011;55747;51.998;4.466;2023-03-01T07:47:50;81.05;;;36.63;;
68757;SDS011;55747;51.998;4.466;2023-03-01T07:50:16;81.93;;;37.60;;
68757;SDS011;55747;51.998;4.466;2023-03-01T07:52:44;81.75;;;36.60;;
68757;SDS011;55747;51.998;4.466;2023-03-01T07:55:10;87.10;;;37.95;;
68757;SDS011;55747;51.998;4.466;2023-03-01T07:57:36;86.03;;;36.53;;
68757;SDS011;55747;51.998;4.466;2023-03-01T08:00:02;78.53;;;37.33;;
68757;SDS011;55747;51.998;4.466;2023-03-01T08:02:27;76.60;;;35.33;;
68757;SDS011;55747;51.998;4.466;2023-03-01T08:04:53;74.50;;;36.38;;
68757;SDS011;55747;51.998;4.466;2023-03-01T08:07:18;75.28;;;35.00;;
68757;SDS011;55747;51.998;4.466;2023-03-01T08:09:43;72.82;;;34.33;;
68757;SDS011;55747;51.998;4.466;2023-03-01T08:12:09;73.95;;;35.40;;
68757;SDS011;55747;51.998;4.466;2023-03-01T08:14:34;69.90;;;33.83;;
68757;SDS011;55747;51.998;4.466;2023-03-01T08:16:59;70.88;;;34.58;;
68757;SDS011;55747;51.998;4.466;2023-03-01T08:19:25;70.93;;;32.95;;
68757;SDS011;55747;51.998;4.466;2023-03-01T08:21:55;66.50;;;33.00;;
68757;SDS011;55747;51.998;4.466;2023-03-01T08:24:23;60.55;;;31.40;;
68757;SDS011;55747;51.998;4.466;2023-03-01T08:26:48;63.72;;;31.63;;
68757;SDS011;55747;51.998;4.466;2023-03-01T08:29:15;62.67;;;32.03;;
68757;SDS011;55747;51.998;4.466;2023-03-01T08:31:41;56.60;;;30.77;;
68757;SDS011;55747;51.998;4.466;2023-03-01T08:34:08;53.00;;;29.42;;
68757;SDS011;55747;51.998;4.466;2023-03-01T08:36:36;51.40;;;29.75;;
68757;SDS011;55747;51.998;4.466;2023-03-01T08:39:07;46.00;;;25.85;;
68757;SDS011;55747;51.998;4.466;2023-03-01T08:41:33;40.03;;;24.63;;
68757;SDS011;55747;51.998;4.466;2023-03-01T08:44:04;32.15;;;21.02;;
68757;SDS011;55747;51.998;4.466;2023-03-01T08:46:31;27.33;;;18.50;;
68757;SDS011;55747;51.998;4.466;2023-03-01T08:49:13;23.33;;;16.65;;
68757;SDS011;55747;51.998;4.466;2023-03-01T08:51:40;24.15;;;15.07;;
68757;SDS011;55747;51.998;4.466;2023-03-01T08:54:07;19.77;;;15.27;;
68757;SDS011;55747;51.998;4.466;2023-03-01T08:56:36;20.08;;;15.38;;
68757;SDS011;55747;51.998;4.466;2023-03-01T08:59:01;17.08;;;13.55;;
68757;SDS011;55747;51.998;4.466;2023-03-01T09:01:27;17.05;;;13.20;;
68757;SDS011;55747;51.998;4.466;2023-03-01T09:03:52;14.38;;;11.60;;
68757;SDS011;55747;51.998;4.466;2023-03-01T09:06:17;14.45;;;11.85;;
68757;SDS011;55747;51.998;4.466;2023-03-01T09:08:48;14.50;;;11.95;;
68757;SDS011;55747;51.998;4.466;2023-03-01T09:13:41;13.35;;;10.32;;
68757;SDS011;55747;51.998;4.466;2023-03-01T09:16:11;11.30;;;10.02;;
68757;SDS011;55747;51.998;4.466;2023-03-01T09:18:41;12.23;;;9.82;;
68757;SDS011;55747;51.998;4.466;2023-03-01T09:21:33;13.07;;;9.68;;
68757;SDS011;55747;51.998;4.466;2023-03-01T09:24:08;11.68;;;10.45;;
68757;SDS011;55747;51.998;4.466;2023-03-01T09:26:54;13.75;;;10.77;;
68757;SDS011;55747;51.998;4.466;2023-03-01T09:31:48;11.80;;;10.07;;
68757;SDS011;55747;51.998;4.466;2023-03-01T09:34:15;11.77;;;9.20;;
68757;SDS011;55747;51.998;4.466;2023-03-01T09:36:48;13.60;;;9.55;;
68757;SDS011;55747;51.998;4.466;2023-03-01T09:39:27;12.13;;;9.77;;
68757;SDS011;55747;51.998;4.466;2023-03-01T09:41:59;10.00;;;8.13;;
68757;SDS011;55747;51.998;4.466;2023-03-01T09:44:31;12.30;;;8.90;;
68757;SDS011;55747;51.998;4.466;2023-03-01T09:47:23;11.50;;;8.18;;
68757;SDS011;55747;51.998;4.466;2023-03-01T09:52:42;10.52;;;8.48;;
68757;SDS011;55747;51.998;4.466;2023-03-01T09:55:33;9.60;;;8.52;;
68757;SDS011;55747;51.998;4.466;2023-03-01T10:04:45;10.35;;;6.88;;
68757;SDS011;55747;51.998;4.466;2023-03-01T10:10:06;8.48;;;6.22;;
68757;SDS011;55747;51.998;4.466;2023-03-01T10:12:35;8.70;;;6.20;;
68757;SDS011;55747;51.998;4.466;2023-03-01T10:18:03;7.95;;;6.00;;
68757;SDS011;55747;51.998;4.466;2023-03-01T10:23:12;6.90;;;5.60;;
68757;SDS011;55747;51.998;4.466;2023-03-01T10:31:23;6.50;;;5.43;;
68757;SDS011;55747;51.998;4.466;2023-03-01T10:33:54;8.02;;;5.47;;
68757;SDS011;55747;51.998;4.466;2023-03-01T10:36:26;6.18;;;5.00;;
68757;SDS011;55747;51.998;4.466;2023-03-01T10:38:57;9.18;;;5.82;;
68757;SDS011;55747;51.998;4.466;2023-03-01T10:41:24;7.55;;;5.28;;
68757;SDS011;55747;51.998;4.466;2023-03-01T10:43:57;7.85;;;5.63;;
68757;SDS011;55747;51.998;4.466;2023-03-01T10:51:49;8.02;;;5.88;;
68757;SDS011;55747;51.998;4.466;2023-03-01T10:56:53;8.35;;;5.50;;
68757;SDS011;55747;51.998;4.466;2023-03-01T10:59:42;7.35;;;5.80;;
68757;SDS011;55747;51.998;4.466;2023-03-01T11:02:23;7.05;;;5.30;;
68757;SDS011;55747;51.998;4.466;2023-03-01T11:04:59;7.07;;;5.85;;
68757;SDS011;55747;51.998;4.466;2023-03-01T11:07:55;8.27;;;6.68;;
68757;SDS011;55747;51.998;4.466;2023-03-01T11:10:27;9.48;;;7.25;;
68757;SDS011;55747;51.998;4.466;2023-03-01T11:13:04;9.02;;;6.78;;
68757;SDS011;55747;51.998;4.466;2023-03-01T11:15:31;10.20;;;7.20;;
68757;SDS011;55747;51.998;4.466;2023-03-01T11:17:57;10.23;;;7.57;;
68757;SDS011;55747;51.998;4.466;2023-03-01T11:20:32;11.13;;;7.90;;
68757;SDS011;55747;51.998;4.466;2023-03-01T11:23:10;8.85;;;7.20;;
68757;SDS011;55747;51.998;4.466;2023-03-01T11:25:39;9.57;;;7.40;;
68757;SDS011;55747;51.998;4.466;2023-03-01T11:28:10;9.70;;;7.20;;
68757;SDS011;55747;51.998;4.466;2023-03-01T11:30:41;10.85;;;7.50;;
68757;SDS011;55747;51.998;4.466;2023-03-01T11:33:36;9.40;;;7.90;;
68757;SDS011;55747;51.998;4.466;2023-03-01T11:39:27;10.50;;;8.23;;
68757;SDS011;55747;51.998;4.466;2023-03-01T11:42:06;11.00;;;8.40;;
68757;SDS011;55747;51.998;4.466;2023-03-01T11:44:47;10.02;;;8.20;;
68757;SDS011;55747;51.998;4.466;2023-03-01T11:49:59;11.70;;;7.90;;
68757;SDS011;55747;51.998;4.466;2023-03-01T11:58:07;10.80;;;8.27;;
68757;SDS011;55747;51.998;4.466;2023-03-01T12:01:06;10.80;;;8.50;;
68757;SDS011;55747;51.998;4.466;2023-03-01T12:11:56;11.02;;;8.63;;
68757;SDS011;55747;51.998;4.466;2023-03-01T12:17:17;11.75;;;9.00;;
68757;SDS011;55747;51.998;4.466;2023-03-01T12:20:02;12.50;;;9.32;;
68757;SDS011;55747;51.998;4.466;2023-03-01T12:28:50;13.70;;;10.07;;
68757;SDS011;55747;51.998;4.466;2023-03-01T12:39:50;12.38;;;9.13;;
68757;SDS011;55747;51.998;4.466;2023-03-01T12:48:18;13.43;;;8.70;;
68757;SDS011;55747;51.998;4.466;2023-03-01T12:50:57;11.38;;;8.52;;
68757;SDS011;55747;51.998;4.466;2023-03-01T12:53:32;10.68;;;8.38;;
68757;SDS011;55747;51.998;4.466;2023-03-01T12:56:12;10.07;;;7.90;;
68757;SDS011;55747;51.998;4.466;2023-03-01T13:18:30;9.48;;;7.03;;
68757;SDS011;55747;51.998;4.466;2023-03-01T13:26:14;9.00;;;6.43;;
68757;SDS011;55747;51.998;4.466;2023-03-01T13:31:56;11.00;;;6.78;;
68757;SDS011;55747;51.998;4.466;2023-03-01T13:34:00;7.90;;;6.75;;
68757;SDS011;55747;51.998;4.466;2023-03-01T13:44:12;8.80;;;6.38;;
68757;SDS011;55747;51.998;4.466;2023-03-01T13:47:00;7.88;;;5.32;;
68757;SDS011;55747;51.998;4.466;2023-03-01T13:55:03;8.18;;;5.90;;
68757;SDS011;55747;51.998;4.466;2023-03-01T13:57:39;7.93;;;6.00;;
68757;SDS011;55747;51.998;4.466;2023-03-01T14:00:07;6.68;;;5.55;;
68757;SDS011;55747;51.998;4.466;2023-03-01T14:03:03;7.85;;;5.32;;
68757;SDS011;55747;51.998;4.466;2023-03-01T14:05:44;6.97;;;5.30;;
68757;SDS011;55747;51.998;4.466;2023-03-01T14:08:24;6.45;;;5.13;;
68757;SDS011;55747;51.998;4.466;2023-03-01T14:11:56;7.38;;;5.22;;
68757;SDS011;55747;51.998;4.466;2023-03-01T14:19:21;7.57;;;5.43;;
68757;SDS011;55747;51.998;4.466;2023-03-01T14:24:29;8.30;;;5.32;;
68757;SDS011;55747;51.998;4.466;2023-03-01T14:26:57;6.70;;;4.75;;
68757;SDS011;55747;51.998;4.466;2023-03-01T14:29:35;7.22;;;4.95;;
68757;SDS011;55747;51.998;4.466;2023-03-01T14:32:18;7.85;;;5.28;;
68757;SDS011;55747;51.998;4.466;2023-03-01T14:34:49;7.57;;;5.18;;
68757;SDS011;55747;51.998;4.466;2023-03-01T14:37:32;6.65;;;5.20;;
68757;SDS011;55747;51.998;4.466;2023-03-01T14:40:01;7.68;;;5.45;;
68757;SDS011;55747;51.998;4.466;2023-03-01T14:42:34;6.55;;;5.25;;
68757;SDS011;55747;51.998;4.466;2023-03-01T14:45:01;8.35;;;5.05;;
68757;SDS011;55747;51.998;4.466;2023-03-01T14:47:32;6.65;;;4.90;;
68757;SDS011;55747;51.998;4.466;2023-03-01T14:50:42;6.28;;;5.05;;
68757;SDS011;55747;51.998;4.466;2023-03-01T14:52:51;11.40;;;5.53;;
68757;SDS011;55747;51.998;4.466;2023-03-01T14:55:21;8.82;;;5.65;;
68757;SDS011;55747;51.998;4.466;2023-03-01T14:57:52;8.35;;;5.45;;
68757;SDS011;55747;51.998;4.466;2023-03-01T15:00:22;7.53;;;5.47;;
68757;SDS011;55747;51.998;4.466;2023-03-01T15:02:52;11.23;;;5.65;;
68757;SDS011;55747;51.998;4.466;2023-03-01T15:05:22;8.05;;;5.45;;
68757;SDS011;55747;51.998;4.466;2023-03-01T15:08:00;7.03;;;5.80;;
68757;SDS011;55747;51.998;4.466;2023-03-01T15:10:27;7.80;;;6.07;;
68757;SDS011;55747;51.998;4.466;2023-03-01T15:12:54;7.68;;;5.93;;
68757;SDS011;55747;51.998;4.466;2023-03-01T15:17:54;8.95;;;5.85;;
68757;SDS011;55747;51.998;4.466;2023-03-01T15:20:25;9.90;;;5.70;;
68757;SDS011;55747;51.998;4.466;2023-03-01T15:22:54;6.57;;;5.00;;
68757;SDS011;55747;51.998;4.466;2023-03-01T15:25:24;5.50;;;4.55;;
68757;SDS011;55747;51.998;4.466;2023-03-01T15:27:52;6.05;;;4.75;;
68757;SDS011;55747;51.998;4.466;2023-03-01T15:32:48;8.00;;;4.70;;
68757;SDS011;55747;51.998;4.466;2023-03-01T15:35:45;6.43;;;4.70;;
68757;SDS011;55747;51.998;4.466;2023-03-01T15:38:33;6.10;;;4.55;;
68757;SDS011;55747;51.998;4.466;2023-03-01T15:41:04;6.82;;;4.53;;
68757;SDS011;55747;51.998;4.466;2023-03-01T15:43:37;10.85;;;5.28;;
68757;SDS011;55747;51.998;4.466;2023-03-01T15:46:12;6.60;;;5.22;;
68757;SDS011;55747;51.998;4.466;2023-03-01T15:48:46;8.73;;;5.38;;
68757;SDS011;55747;51.998;4.466;2023-03-01T15:53:40;8.38;;;5.30;;
68757;SDS011;55747;51.998;4.466;2023-03-01T15:56:05;7.85;;;4.90;;
68757;SDS011;55747;51.998;4.466;2023-03-01T15:58:32;9.02;;;5.32;;
68757;SDS011;55747;51.998;4.466;2023-03-01T16:00:57;7.35;;;4.82;;
68757;SDS011;55747;51.998;4.466;2023-03-01T16:03:24;7.57;;;5.40;;
68757;SDS011;55747;51.998;4.466;2023-03-01T16:05:49;7.72;;;5.20;;
68757;SDS011;55747;51.998;4.466;2023-03-01T16:08:16;8.07;;;5.63;;
68757;SDS011;55747;51.998;4.466;2023-03-01T16:10:45;10.73;;;5.57;;
68757;SDS011;55747;51.998;4.466;2023-03-01T16:13:14;8.43;;;5.47;;
68757;SDS011;55747;51.998;4.466;2023-03-01T16:15:40;8.45;;;5.50;;
68757;SDS011;55747;51.998;4.466;2023-03-01T16:18:06;8.40;;;5.30;;
68757;SDS011;55747;51.998;4.466;2023-03-01T16:20:32;8.00;;;5.47;;
68757;SDS011;55747;51.998;4.466;2023-03-01T16:22:58;9.63;;;6.07;;
68757;SDS011;55747;51.998;4.466;2023-03-01T16:25:25;8.57;;;5.43;;
68757;SDS011;55747;51.998;4.466;2023-03-01T16:27:51;8.95;;;5.80;;
68757;SDS011;55747;51.998;4.466;2023-03-01T16:30:18;8.43;;;5.75;;
68757;SDS011;55747;51.998;4.466;2023-03-01T16:32:46;10.05;;;5.78;;
68757;SDS011;55747;51.998;4.466;2023-03-01T16:35:13;10.68;;;5.82;;
68757;SDS011;55747;51.998;4.466;2023-03-01T16:37:40;11.07;;;6.22;;
68757;SDS011;55747;51.998;4.466;2023-03-01T16:40:10;11.23;;;6.13;;
68757;SDS011;55747;51.998;4.466;2023-03-01T16:42:42;9.73;;;6.03;;
68757;SDS011;55747;51.998;4.466;2023-03-01T16:45:07;7.50;;;5.43;;
68757;SDS011;55747;51.998;4.466;2023-03-01T16:47:33;8.90;;;5.85;;
68757;SDS011;55747;51.998;4.466;2023-03-01T16:49:59;7.78;;;5.60;;
68757;SDS011;55747;51.998;4.466;2023-03-01T16:52:24;8.30;;;5.53;;
68757;SDS011;55747;51.998;4.466;2023-03-01T16:54:50;7.88;;;5.47;;
68757;SDS011;55747;51.998;4.466;2023-03-01T16:57:15;9.85;;;6.18;;
68757;SDS011;55747;51.998;4.466;2023-03-01T16:59:41;8.35;;;5.82;;
68757;SDS011;55747;51.998;4.466;2023-03-01T17:02:09;9.60;;;5.90;;
68757;SDS011;55747;51.998;4.466;2023-03-01T17:04:37;7.03;;;5.25;;
68757;SDS011;55747;51.998;4.466;2023-03-01T17:07:03;8.68;;;6.22;;
68757;SDS011;55747;51.998;4.466;2023-03-01T17:09:28;9.30;;;5.75;;
68757;SDS011;55747;51.998;4.466;2023-03-01T17:11:54;8.68;;;5.97;;
68757;SDS011;55747;51.998;4.466;2023-03-01T17:14:19;9.82;;;6.00;;